Terminal Aerodrome Forecast
Issued by NWS

Home | Current Version | Previous Version | Text Only | Print | Product List | Glossary Off
Versions: 1 2 3 4 5 6 7 8 9 10 11 12 13 14 15 16 17 18 19 20 21 22 23 24 25 26 27 28 29

465
FTUS43 KDLH 061146
TAFHIB
TAF
KHIB 061146Z 0612/0712 19009G18KT P6SM OVC020
     FM061600 20010KT P6SM VCSH BKN018 OVC022
     FM062000 22010G17KT 3SM -SHSN BR OVC012
     FM070600 26013G20KT 5SM -SHSN BR SCT008 BKN010 OVC014=

USA.gov is the U.S. government's official web portal to all federal, state and local government web resources and services.